Aihui, Heilongjiang

11:25 PM CST on July 25, 2016 (GMT +0800)
Ignatyevo | | Change Station

Elev 636 ft 50.43 °N, 127.41 °E | Updated 25 minutes ago

Clear
Clear
64 °F
Feels Like 64 °F
N
7
Wind Variable Wind from South

Today
High -- | Low -- °F
--% Chance of Precip.
Yesterday
High -- | Low -- °F
Precip. -- in
Pressure 29.68 in
Visibility -9999.0 miles
Clouds
Dew Point 63 °F
Humidity 94%
Rainfall 0.00 in
Snow Depth Not available.
3:48 AM 7:23 PM
Waning Gibbous, 65% visible
METAR UHBB 251500Z 18003MPS CAVOK 18/17 Q1005 R36/090060 NOSIG RMK QFE737/0982
Pressure 29.68 in
Visibility -9999.0 miles
Clouds
Dew Point 63 °F
Humidity 94%
Rainfall 0.00 in
Snow Depth Not available.
3:48 AM 7:23 PM
Waning Gibbous, 65% visible
METAR UHBB 251500Z 18003MPS CAVOK 18/17 Q1005 R36/090060 NOSIG RMK QFE737/0982

10-Day Weather Forecast

No radar image for this location.
×

Almanac

Astronomy

Jul. 25, 2016 Rise Set
Actual Time
Civil Twilight
Nautical Twilight
Astronomical Twilight
Moon
Length of Visible Light
Length of Day
Tomorrow will be .
, % of the Moon is Illuminated

Today's Extremes

Country Highs Country Lows

Community

WunderPhotos

Upload Photos

1,927,318 photos uploaded!

WunderBlog® & News

Nearby

Air Quality

  Air Quality AQ Index Pollutant
Not available.

Snow Depth

Station Depth Elevation

Earthquake Activity

City Distance Mag. Time & Date
Minimum magnitude displayed is 2.5.

Coastal Water Temperatures

Place Temperature

Stations

Nearby Weather Stations

Station Location Temp. Windchill Dew Point Humidity Wind Precip. Elev Updated Type